Estrela de Alagoas, Brazil
Current Conditions -  °F | °C
As of 6:00 PM on Wednesday 17 Dec 2014 (Local Time) from SBMO Reporting Station
Broken Clouds Broken Clouds  
Wind Chill: 77°   Ceiling: 10000
Heat Index: 79°   Visibility: 6mi
Dew Point: 70°   Wind: 10mph
Humidity: 78%   Direction: 100°E
Pressure: 29.88"   Gusts: NA
Location:  9.39°S, 36.76°W
Report Text: SBMO 172100Z 10009KT 9999 SCT020 BKN100 25/21 Q1012
Loading
Personal Weather Stations






























Interactive Weather Map New forecast layout! Learn more

10-Day Weather Forecast

Advertisements
Track Severe Weather on mobile